Time;durP1;ratioP1;P1;durP2;ratioP2;P2;SDS_P1;SDS_P2;PMS_P1;PMS_P2;Temp;Humidity;BMP_temperature;BMP_pressure;BME280_temperature;BME280_humidity;BME280_pressure;Samples;Min_cycle;Max_cycle;Signal;HPM_P1;HPM_P2
2021/04/27 00:02:07;;;;;;;2.75;1.17;;;;;;;5.43;68.89;101160.84;4974963;28;20046;-75
2021/04/27 00:04:32;;;;;;;7.35;1.67;;;;;;;5.47;68.61;101171.69;4971464;28;20033;-75
2021/04/27 00:06:58;;;;;;;2.33;1.40;;;;;;;5.45;68.95;101169.34;4970703;28;20065;-75
2021/04/27 00:09:23;;;;;;;3.42;1.50;;;;;;;5.28;69.50;101171.91;4965637;28;20031;-75
2021/04/27 00:11:49;;;;;;;3.53;1.55;;;;;;;5.30;69.11;101161.69;4972089;28;20038;-75
2021/04/27 00:14:14;;;;;;;1.88;1.25;;;;;;;5.20;69.92;101159.31;4971931;28;20487;-75
2021/04/27 00:16:40;;;;;;;1.52;1.23;;;;;;;5.18;69.59;101166.84;4965440;28;20030;-75
2021/04/27 00:19:05;;;;;;;4.03;1.63;;;;;;;5.23;69.64;101164.03;4982898;28;20493;-75
2021/04/27 00:21:31;;;;;;;3.47;1.80;;;;;;;5.45;68.76;101163.19;4972056;28;20065;-75
2021/04/27 00:23:57;;;;;;;2.22;1.70;;;;;;;5.32;69.46;101156.84;4972295;28;20043;-75
2021/04/27 00:26:22;;;;;;;4.20;1.33;;;;;;;5.23;70.10;101153.34;4997281;23;20027;-72
2021/04/27 00:28:47;;;;;;;4.20;1.77;;;;;;;5.22;70.11;101151.78;5062105;28;20111;-71
2021/04/27 00:31:13;;;;;;;4.03;1.70;;;;;;;5.23;69.76;101142.69;5076500;28;20131;-71
2021/04/27 00:33:39;;;;;;;2.38;1.38;;;;;;;5.10;69.94;101148.91;5074473;28;20111;-71
2021/04/27 00:36:05;;;;;;;2.60;1.45;;;;;;;5.16;70.02;101152.22;5042504;28;20397;-72
2021/04/27 00:38:32;;;;;;;3.42;1.50;;;;;;;5.14;69.44;101141.06;5035475;28;20046;-72
2021/04/27 00:40:59;;;;;;;3.42;1.30;;;;;;;5.12;70.07;101141.38;5047255;28;20025;-71
2021/04/27 00:43:25;;;;;;;2.80;1.60;;;;;;;5.31;69.36;101141.13;5049117;28;20035;-72
2021/04/27 00:45:51;;;;;;;4.53;2.10;;;;;;;5.35;69.00;101142.91;5064263;28;20032;-73
2021/04/27 00:48:16;;;;;;;4.93;1.70;;;;;;;5.18;70.62;101134.00;5062278;28;20114;-71
2021/04/27 00:50:42;;;;;;;2.45;1.45;;;;;;;5.14;70.49;101149.84;5070287;28;20115;-71
2021/04/27 00:53:08;;;;;;;3.10;1.60;;;;;;;5.07;70.55;101135.38;5067546;28;20032;-71
2021/04/27 00:55:34;;;;;;;3.30;1.70;;;;;;;5.00;70.90;101135.81;5061426;28;20039;-72
2021/04/27 00:58:01;;;;;;;2.28;1.40;;;;;;;5.03;70.71;101129.06;5065712;28;20115;-72
2021/04/27 01:00:30;;;;;;;5.35;1.45;;;;;;;5.00;70.79;101137.66;5045144;28;20029;-72
2021/04/27 01:02:56;;;;;;;3.28;1.60;;;;;;;5.01;70.78;101129.38;5071439;28;20032;-72
2021/04/27 01:05:33;;;;;;;2.00;1.23;;;;;;;5.02;71.37;101125.59;5072239;28;20453;-72
2021/04/27 01:08:17;;;;;;;3.38;1.48;;;;;;;4.84;71.82;101133.81;5054326;28;20094;-72
2021/04/27 01:11:01;;;;;;;3.80;1.60;;;;;;;4.97;71.86;101127.63;5051937;28;20085;-71
2021/04/27 01:13:37;;;;;;;4.25;1.77;;;;;;;4.75;71.76;101131.09;5071894;28;20032;-71
2021/04/27 01:16:06;;;;;;;1.77;1.40;;;;;;;4.79;72.46;101134.72;5072632;28;20086;-72
2021/04/27 01:18:32;;;;;;;4.03;1.55;;;;;;;4.62;73.06;101126.63;5080832;28;20024;-72
2021/04/27 01:21:01;;;;;;;2.45;1.40;;;;;;;4.39;74.52;101125.78;5058913;28;20029;-71
2021/04/27 01:24:00;;;;;;;2.85;1.50;;;;;;;4.36;74.39;101128.28;5058197;28;20025;-71
2021/04/27 01:26:37;;;;;;;1.80;1.30;;;;;;;3.95;76.32;101128.38;5024827;28;20036;-71
2021/04/27 01:29:06;;;;;;;3.55;1.50;;;;;;;4.00;76.89;101122.94;5064162;28;20807;-72
2021/04/27 01:31:32;;;;;;;3.78;2.40;;;;;;;3.91;77.66;101129.28;5070400;28;20444;-71
2021/04/27 01:33:58;;;;;;;3.95;1.77;;;;;;;3.66;78.26;101126.03;5074545;28;20040;-71
2021/04/27 01:36:25;;;;;;;5.10;1.65;;;;;;;3.67;78.42;101121.50;5069523;28;20021;-72
2021/04/27 01:38:53;;;;;;;4.03;1.75;;;;;;;3.70;78.61;101126.22;5050933;28;20032;-72
2021/04/27 01:41:19;;;;;;;2.83;1.33;;;;;;;3.84;77.96;101121.69;5062221;28;20380;-71
2021/04/27 01:43:47;;;;;;;2.92;1.40;;;;;;;3.90;77.36;101117.84;5070914;28;20392;-71
2021/04/27 01:46:13;;;;;;;4.38;1.60;;;;;;;3.78;77.79;101119.41;5046501;28;20623;-71
2021/04/27 01:48:40;;;;;;;2.95;1.40;;;;;;;3.90;77.70;101119.69;5068621;28;20034;-71
2021/04/27 01:51:10;;;;;;;2.05;1.42;;;;;;;3.79;78.03;101113.00;5072577;28;20036;-71
2021/04/27 01:53:55;;;;;;;4.28;1.40;;;;;;;3.78;77.70;101128.19;5064806;28;20490;-72
2021/04/27 01:56:23;;;;;;;3.95;1.48;;;;;;;3.65;78.33;101113.81;5051419;28;20603;-71
2021/04/27 01:58:50;;;;;;;4.03;1.33;;;;;;;3.56;79.28;101120.91;5047758;28;20071;-71
2021/04/27 02:01:16;;;;;;;2.47;1.40;;;;;;;3.46;80.25;101120.31;5072303;28;20048;-71
2021/04/27 02:03:44;;;;;;;2.15;1.48;;;;;;;3.44;79.48;101123.28;5053102;28;20036;-71
2021/04/27 02:06:14;;;;;;;2.45;1.40;;;;;;;3.39;79.31;101112.72;5071202;28;20029;-71
2021/04/27 02:08:48;;;;;;;2.30;1.38;;;;;;;3.27;80.06;101111.66;5051440;28;20469;-71
2021/04/27 02:11:14;;;;;;;3.75;1.95;;;;;;;3.42;79.56;101106.81;5057733;28;20028;-72
2021/04/27 02:13:40;;;;;;;2.90;1.92;;;;;;;3.42;79.82;101108.69;5042836;28;20369;-71
2021/04/27 02:16:07;;;;;;;3.58;1.73;;;;;;;3.35;79.83;101106.41;5042791;28;20033;-72
2021/04/27 02:18:52;;;;;;;2.67;1.48;;;;;;;3.14;80.74;101102.56;5033211;28;20017;-71
2021/04/27 02:21:18;;;;;;;;;;;;;;;3.11;81.21;101108.47;5069625;28;20033;-71
2021/04/27 02:24:03;;;;;;;2.55;1.30;;;;;;;3.06;81.58;101113.09;5070507;28;20018;-72
2021/04/27 02:26:33;;;;;;;2.33;1.48;;;;;;;2.98;82.17;101113.75;5051188;28;20024;-72
2021/04/27 02:29:05;;;;;;;4.20;1.83;;;;;;;3.09;81.50;101101.84;5050155;28;20527;-72
2021/04/27 02:31:32;;;;;;;3.47;1.80;;;;;;;2.97;82.20;101102.34;5044891;28;20377;-73
2021/04/27 02:34:04;;;;;;;3.22;1.80;;;;;;;3.01;82.30;101102.53;5048606;28;20024;-73
2021/04/27 02:36:30;;;;;;;2.33;1.40;;;;;;;3.00;82.04;101096.41;5062807;28;20669;-73
2021/04/27 02:39:05;;;;;;;3.03;1.55;;;;;;;3.04;81.67;101086.78;5038376;28;20440;-72
2021/04/27 02:41:31;;;;;;;2.72;1.50;;;;;;;3.18;80.91;101094.75;5043748;28;20043;-73
2021/04/27 02:44:02;;;;;;;5.13;1.83;;;;;;;3.12;80.67;101094.06;5047698;28;20119;-71
2021/04/27 02:46:29;;;;;;;2.70;1.58;;;;;;;3.04;81.44;101096.63;5050490;28;20029;-73
2021/04/27 02:48:58;;;;;;;3.25;1.42;;;;;;;3.03;80.68;101095.84;5033334;28;20086;-73
2021/04/27 02:51:26;;;;;;;2.17;1.20;;;;;;;3.10;81.38;101088.25;5038300;28;20028;-72
2021/04/27 02:54:05;;;;;;;1.92;1.33;;;;;;;3.16;80.86;101084.44;5046883;28;20036;-72
2021/04/27 02:56:32;;;;;;;2.55;1.40;;;;;;;2.97;81.30;101086.38;5055933;28;20127;-71
2021/04/27 02:58:58;;;;;;;2.25;1.40;;;;;;;3.08;81.36;101093.09;5068341;28;20477;-72
2021/04/27 03:01:30;;;;;;;3.30;1.50;;;;;;;2.92;81.53;101080.38;5049920;28;20028;-72
2021/04/27 03:03:59;;;;;;;3.42;1.75;;;;;;;2.89;82.30;101081.72;5049508;28;20388;-72
2021/04/27 03:06:33;;;;;;;2.20;1.38;;;;;;;2.93;81.82;101077.41;5047467;28;20048;-72
2021/04/27 03:09:08;;;;;;;1.63;1.38;;;;;;;2.80;82.59;101080.81;5043413;28;20046;-71
2021/04/27 03:11:36;;;;;;;2.97;1.58;;;;;;;2.85;81.89;101075.41;5050303;28;20032;-72
2021/04/27 03:14:02;;;;;;;1.83;1.50;;;;;;;2.82;82.46;101075.22;5032997;28;20124;-72
2021/04/27 03:16:28;;;;;;;1.83;1.55;;;;;;;2.78;82.25;101079.53;5049191;28;20038;-72
2021/04/27 03:18:53;;;;;;;2.67;1.35;;;;;;;2.89;82.00;101079.06;5049396;28;20657;-72
2021/04/27 03:21:21;;;;;;;3.38;1.67;;;;;;;2.77;82.38;101076.09;5041331;28;20036;-72
2021/04/27 03:23:49;;;;;;;4.70;1.40;;;;;;;2.83;82.92;101074.16;5050561;28;20108;-72
2021/04/27 03:26:15;;;;;;;2.58;1.55;;;;;;;2.84;83.10;101070.41;5053773;28;20119;-72
2021/04/27 03:29:04;;;;;;;2.13;1.65;;;;;;;2.73;82.67;101065.25;5063912;28;20052;-71
2021/04/27 03:31:32;;;;;;;4.35;2.15;;;;;;;2.72;83.44;101070.84;5046988;28;20780;-72
2021/04/27 03:33:58;;;;;;;5.93;2.13;;;;;;;2.92;82.55;101067.84;5063298;28;20078;-72
2021/04/27 03:36:24;;;;;;;2.47;1.58;;;;;;;2.69;82.80;101071.47;5057845;28;20086;-69
2021/04/27 03:38:53;;;;;;;2.00;1.55;;;;;;;2.63;83.39;101059.31;5053823;28;20108;-71
2021/04/27 03:41:19;;;;;;;4.00;1.60;;;;;;;2.76;82.46;101066.53;5060528;28;20437;-73
2021/04/27 03:43:44;;;;;;;2.47;1.70;;;;;;;2.50;83.51;101062.72;5043944;28;20093;-71
2021/04/27 03:46:10;;;;;;;3.63;1.60;;;;;;;2.56;84.29;101065.00;5067477;28;20032;-71
2021/04/27 03:48:36;;;;;;;2.10;1.55;;;;;;;2.52;83.95;101069.31;5037204;28;20040;-71
2021/04/27 03:51:01;;;;;;;2.35;1.60;;;;;;;2.56;83.33;101070.31;5048137;28;20036;-71
2021/04/27 03:53:52;;;;;;;6.97;1.90;;;;;;;2.54;83.88;101066.38;5057067;28;20213;-71
2021/04/27 03:56:29;;;;;;;3.85;1.85;;;;;;;2.49;83.74;101066.47;5059370;28;20024;-71
2021/04/27 03:58:54;;;;;;;3.60;1.80;;;;;;;2.59;83.75;101068.97;5054725;28;20071;-71
2021/04/27 04:01:21;;;;;;;3.33;1.70;;;;;;;2.67;84.14;101063.75;5054100;28;20138;-71
2021/04/27 04:03:46;;;;;;;3.10;1.90;;;;;;;2.60;83.21;101060.69;5040154;28;20037;-71
2021/04/27 04:06:13;;;;;;;3.20;1.70;;;;;;;2.49;84.41;101059.28;5019222;28;20028;-71
2021/04/27 04:08:58;;;;;;;4.70;2.10;;;;;;;2.50;84.55;101055.53;5054276;28;20050;-71
2021/04/27 04:11:26;;;;;;;2.97;1.95;;;;;;;2.38;84.86;101067.72;5041319;28;20033;-71
2021/04/27 04:13:52;;;;;;;6.18;1.98;;;;;;;2.45;85.27;101060.16;5033817;28;20111;-71
2021/04/27 04:16:19;;;;;;;2.28;1.58;;;;;;;2.75;83.95;101068.41;5057662;28;20033;-72
2021/04/27 04:18:46;;;;;;;2.72;1.80;;;;;;;2.77;83.40;101059.38;5040179;28;20093;-71
2021/04/27 04:21:12;;;;;;;2.33;1.67;;;;;;;2.61;84.51;101067.56;5042231;28;20029;-72
2021/04/27 04:23:53;;;;;;;3.47;1.75;;;;;;;2.68;83.57;101068.00;5051609;28;20036;-72
2021/04/27 04:26:19;;;;;;;2.35;1.75;;;;;;;2.68;84.11;101062.69;5039182;28;20060;-71
2021/04/27 04:29:05;;;;;;;10.38;1.92;;;;;;;2.62;83.90;101071.03;5023158;28;20049;-72
2021/04/27 04:31:32;;;;;;;2.80;1.48;;;;;;;3.07;82.95;101056.16;5037472;28;20154;-72
2021/04/27 04:34:15;;;;;;;4.25;1.70;;;;;;;2.94;82.87;101064.91;5056220;28;20516;-72
2021/04/27 04:36:59;;;;;;;3.40;1.77;;;;;;;3.15;81.63;101066.91;5048005;28;20074;-72
2021/04/27 04:39:43;;;;;;;5.55;2.10;;;;;;;3.03;81.63;101061.28;5056083;28;20116;-72
2021/04/27 04:42:09;;;;;;;2.20;1.50;;;;;;;3.28;81.94;101068.78;5055260;28;20115;-72
2021/04/27 04:44:53;;;;;;;2.40;1.70;;;;;;;3.31;81.05;101067.41;5054865;28;20047;-72
2021/04/27 04:47:45;;;;;;;3.90;1.73;;;;;;;3.27;81.25;101072.50;5049870;28;20045;-72
2021/04/27 04:50:40;;;;;;;5.07;1.60;;;;;;;3.47;81.05;101068.66;5055068;28;20036;-72
2021/04/27 04:53:15;;;;;;;3.67;1.88;;;;;;;3.28;81.19;101070.63;5053212;28;20076;-72
2021/04/27 04:55:45;;;;;;;2.60;1.60;;;;;;;3.21;81.98;101065.72;5035873;28;20123;-72
2021/04/27 04:58:20;;;;;;;2.97;1.50;;;;;;;3.27;82.29;101063.75;5033002;28;20499;-72
2021/04/27 05:01:12;;;;;;;2.53;1.67;;;;;;;3.61;81.00;101074.75;5047796;28;20064;-71
2021/04/27 05:03:57;;;;;;;3.53;1.50;;;;;;;3.58;80.79;101070.06;5037544;28;20040;-72
2021/04/27 05:06:43;;;;;;;2.83;1.77;;;;;;;3.58;80.85;101086.03;5057039;28;20036;-72
2021/04/27 05:09:27;;;;;;;2.85;1.73;;;;;;;3.76;80.69;101073.66;5049876;28;20056;-71
2021/04/27 05:12:00;;;;;;;5.78;1.80;;;;;;;3.90;79.84;101077.88;5039383;28;20123;-72
2021/04/27 05:14:31;;;;;;;6.55;1.90;;;;;;;3.95;79.03;101080.41;5037302;28;20129;-72
2021/04/27 05:16:59;;;;;;;3.35;1.58;;;;;;;3.88;80.44;101074.72;5057971;28;20024;-72
2021/04/27 05:19:26;;;;;;;4.78;1.88;;;;;;;4.05;79.88;101074.88;5052858;28;20539;-71
2021/04/27 05:21:52;;;;;;;2.80;1.80;;;;;;;4.29;79.74;101077.28;5043309;28;20040;-72
2021/04/27 05:24:18;;;;;;;2.50;1.65;;;;;;;4.52;77.48;101078.84;5040604;28;20028;-71
2021/04/27 05:26:44;;;;;;;4.20;1.90;;;;;;;4.72;77.04;101072.22;5035294;28;20025;-72
2021/04/27 05:29:13;;;;;;;2.03;1.65;;;;;;;4.57;77.32;101079.50;5051340;28;20048;-71
2021/04/27 05:31:39;;;;;;;1.85;1.40;;;;;;;4.59;77.85;101085.31;5054602;28;20032;-72
2021/04/27 05:34:04;;;;;;;3.08;1.50;;;;;;;5.20;76.88;101081.13;5069580;28;20081;-72
2021/04/27 05:36:30;;;;;;;2.75;1.63;;;;;;;5.70;72.57;101087.72;5064276;28;20032;-72
2021/04/27 05:38:55;;;;;;;3.30;1.63;;;;;;;5.91;72.50;101088.72;5065166;28;20036;-71
2021/04/27 05:41:21;;;;;;;2.90;1.60;;;;;;;5.81;72.06;101086.31;5066519;28;20366;-71
2021/04/27 05:43:46;;;;;;;3.83;1.60;;;;;;;6.02;71.19;101078.53;5064629;28;20499;-71
2021/04/27 05:46:12;;;;;;;2.22;1.60;;;;;;;6.04;69.67;101090.47;5070692;28;20028;-71
2021/04/27 05:48:38;;;;;;;2.42;1.40;;;;;;;6.10;69.86;101089.22;5038659;28;20071;-71
2021/04/27 05:51:04;;;;;;;2.15;1.50;;;;;;;6.34;70.04;101091.44;5076387;28;20047;-71
2021/04/27 05:53:29;;;;;;;2.47;1.40;;;;;;;6.57;69.67;101090.16;5063929;28;20394;-71
2021/04/27 05:55:55;;;;;;;4.45;1.60;;;;;;;7.29;66.70;101085.56;5066326;28;20244;-71
2021/04/27 05:58:20;;;;;;;3.15;1.40;;;;;;;7.62;65.01;101095.63;5058632;28;20032;-71
2021/04/27 06:00:46;;;;;;;2.53;1.45;;;;;;;7.62;64.04;101093.75;5060175;28;20032;-72
2021/04/27 06:03:11;;;;;;;1.45;1.27;;;;;;;7.58;63.17;101092.81;5052015;28;20197;-71
2021/04/27 06:05:37;;;;;;;1.92;1.40;;;;;;;7.29;64.07;101095.47;5057403;28;20403;-71
2021/04/27 06:08:02;;;;;;;2.15;1.40;;;;;;;7.67;62.55;101100.78;5057018;28;20033;-70
2021/04/27 06:10:28;;;;;;;2.40;1.65;;;;;;;7.63;63.77;101094.50;5056682;28;20087;-70
2021/04/27 06:12:53;;;;;;;3.25;1.50;;;;;;;7.48;61.85;101084.34;5056784;28;20049;-70
2021/04/27 06:15:19;;;;;;;1.73;1.25;;;;;;;8.03;62.21;101104.50;5062477;28;20020;-70
2021/04/27 06:17:45;;;;;;;1.63;1.50;;;;;;;7.96;61.38;101100.78;5059663;28;20025;-70
2021/04/27 06:20:12;;;;;;;1.35;1.25;;;;;;;8.42;59.34;101091.78;5060155;28;20024;-70
2021/04/27 06:22:38;;;;;;;2.75;1.40;;;;;;;8.50;58.82;101089.03;5070480;28;20056;-70
2021/04/27 06:25:08;;;;;;;2.60;1.52;;;;;;;8.99;58.09;101096.13;5068470;28;20510;-70
2021/04/27 06:27:35;;;;;;;5.77;1.60;;;;;;;8.99;58.29;101098.81;5075814;22;20509;-75
2021/04/27 06:30:00;;;;;;;3.55;1.75;;;;;;;9.43;57.76;101099.06;5000283;28;20041;-75
2021/04/27 06:32:27;;;;;;;1.75;1.30;;;;;;;9.17;56.53;101099.41;5027270;28;20041;-76
2021/04/27 06:34:54;;;;;;;2.95;1.60;;;;;;;9.19;55.68;101104.44;5016879;28;20042;-76
2021/04/27 06:37:20;;;;;;;3.40;1.42;;;;;;;9.33;56.47;101102.97;4994556;28;20118;-76
2021/04/27 06:39:46;;;;;;;1.70;1.30;;;;;;;9.69;55.41;101105.69;5018422;28;20113;-75
2021/04/27 06:42:12;;;;;;;4.10;1.83;;;;;;;9.64;56.11;101102.44;5019903;28;20113;-77
2021/04/27 06:44:37;;;;;;;1.65;1.25;;;;;;;9.58;55.58;101101.09;5018106;28;20037;-76
2021/04/27 06:47:06;;;;;;;4.63;1.52;;;;;;;9.96;53.93;101101.50;5027522;28;20490;-75
2021/04/27 06:49:32;;;;;;;1.48;1.20;;;;;;;9.17;54.45;101099.41;5014014;28;20109;-76
2021/04/27 06:51:57;;;;;;;3.50;1.30;;;;;;;9.73;54.00;101103.91;4999772;28;20491;-75
2021/04/27 06:54:23;;;;;;;2.63;1.40;;;;;;;10.06;52.46;101101.03;5013665;28;21731;-75
2021/04/27 06:56:48;;;;;;;6.68;1.25;;;;;;;9.40;53.84;101097.06;5015832;28;20124;-74
2021/04/27 06:59:16;;;;;;;3.08;1.20;;;;;;;9.36;54.52;101099.63;5013809;28;20059;-74
2021/04/27 07:01:41;;;;;;;2.03;1.20;;;;;;;9.17;54.84;101107.47;5021301;28;20041;-77
2021/04/27 07:04:08;;;;;;;1.65;1.20;;;;;;;9.75;54.64;101092.78;5006031;28;20414;-77
2021/04/27 07:06:34;;;;;;;2.42;1.17;;;;;;;9.94;53.21;101103.75;5016502;28;20073;-77
2021/04/27 07:08:59;;;;;;;3.60;1.23;;;;;;;9.47;52.97;101097.28;4998787;28;20469;-78
2021/04/27 07:11:25;;;;;;;1.80;1.27;;;;;;;9.78;52.73;101102.88;5017983;28;20057;-77
2021/04/27 07:13:50;;;;;;;2.15;0.98;;;;;;;10.33;50.79;101108.41;5001389;28;20112;-79
2021/04/27 07:16:17;;;;;;;4.03;1.35;;;;;;;10.45;51.52;101094.13;5018438;28;20033;-77
2021/04/27 07:18:43;;;;;;;2.28;1.13;;;;;;;10.90;50.73;101097.25;5016319;28;20036;-78
2021/04/27 07:21:08;;;;;;;1.45;1.08;;;;;;;11.39;51.30;101086.94;5019952;28;20033;-77
2021/04/27 07:23:34;;;;;;;2.97;1.55;;;;;;;10.22;49.87;101085.00;5020909;28;20038;-77
2021/04/27 07:25:59;;;;;;;2.20;1.13;;;;;;;10.85;50.05;101087.53;5010581;28;20037;-77
2021/04/27 07:28:25;;;;;;;5.45;1.30;;;;;;;10.50;49.83;101091.97;5004851;28;20044;-77
2021/04/27 07:30:52;;;;;;;2.22;1.20;;;;;;;10.84;49.69;101088.63;4980649;28;20030;-77
2021/04/27 07:33:17;;;;;;;1.75;1.33;;;;;;;11.33;49.88;101086.41;5014041;28;20399;-77
2021/04/27 07:35:43;;;;;;;2.65;1.10;;;;;;;11.50;48.08;101083.34;5017513;28;20083;-77
2021/04/27 07:38:08;;;;;;;1.48;0.93;;;;;;;10.95;48.88;101080.84;5018988;28;20041;-77
2021/04/27 07:40:36;;;;;;;2.50;1.40;;;;;;;11.90;49.05;101088.53;5014261;28;20076;-77
2021/04/27 07:43:02;;;;;;;1.45;1.20;;;;;;;12.27;47.71;101087.00;5017713;28;20038;-76
2021/04/27 07:45:33;;;;;;;4.63;1.23;;;;;;;12.83;47.35;101078.44;5018066;28;20025;-78
2021/04/27 07:48:05;;;;;;;1.65;1.33;;;;;;;13.00;45.58;101076.03;4994986;28;20078;-77
2021/04/27 07:50:31;;;;;;;4.72;1.35;;;;;;;12.59;45.12;101076.84;5015063;28;20046;-78
2021/04/27 07:52:57;;;;;;;1.92;1.42;;;;;;;11.94;47.24;101078.59;5015169;28;20037;-79
2021/04/27 07:55:23;;;;;;;3.17;1.30;;;;;;;12.02;46.92;101068.75;5007170;28;20038;-78
2021/04/27 07:57:49;;;;;;;2.50;1.40;;;;;;;12.42;46.59;101071.88;5014477;28;20030;-77
2021/04/27 08:00:16;;;;;;;2.53;1.00;;;;;;;12.52;45.85;101068.59;4997209;28;20387;-77
2021/04/27 08:02:42;;;;;;;3.05;1.30;;;;;;;12.73;45.54;101065.50;5015552;28;20041;-78
2021/04/27 08:05:10;;;;;;;7.22;1.30;;;;;;;12.01;45.92;101070.66;5001235;28;20088;-77
2021/04/27 08:07:36;;;;;;;1.63;1.35;;;;;;;12.18;46.49;101077.53;5015309;28;20276;-78
2021/04/27 08:10:04;;;;;;;2.50;1.50;;;;;;;12.62;45.43;101071.50;5013873;28;20037;-77
2021/04/27 08:12:30;;;;;;;3.28;1.30;;;;;;;12.30;45.63;101075.50;5032296;28;20055;-76
2021/04/27 08:14:55;;;;;;;5.15;1.20;;;;;;;11.99;46.37;101070.22;5023276;28;20030;-77
2021/04/27 08:17:22;;;;;;;5.35;1.50;;;;;;;12.82;45.59;101069.53;5024013;28;20025;-78
2021/04/27 08:19:48;;;;;;;2.25;0.90;;;;;;;13.29;45.03;101071.91;5019805;28;20037;-78
2021/04/27 08:22:14;;;;;;;3.22;1.10;;;;;;;12.79;44.69;101059.44;5002329;28;20057;-77
2021/04/27 08:24:44;;;;;;;4.68;1.10;;;;;;;12.67;44.59;101063.09;5022484;28;20040;-78
2021/04/27 08:27:14;;;;;;;1.33;0.93;;;;;;;12.81;44.27;101067.19;5017856;28;20037;-76
2021/04/27 08:29:40;;;;;;;1.73;0.98;;;;;;;13.46;43.00;101063.28;5024691;28;20386;-78
2021/04/27 08:32:07;;;;;;;1.85;1.30;;;;;;;13.13;42.54;101063.13;5016142;28;20398;-77
2021/04/27 08:34:35;;;;;;;2.17;1.00;;;;;;;13.62;42.52;101058.50;5009387;28;20401;-74
2021/04/27 08:37:01;;;;;;;1.52;1.00;;;;;;;14.27;41.58;101056.25;5018471;28;20064;-79
2021/04/27 08:39:27;;;;;;;1.80;0.80;;;;;;;14.65;40.58;101057.88;4993522;28;20041;-79
2021/04/27 08:41:53;;;;;;;1.30;0.55;;;;;;;14.58;38.72;101049.66;5014900;28;20037;-77
2021/04/27 08:44:19;;;;;;;1.55;0.77;;;;;;;14.96;38.65;101049.28;5023947;28;20040;-79
2021/04/27 08:46:45;;;;;;;1.70;0.80;;;;;;;14.98;38.27;101049.69;4998213;28;20061;-77
2021/04/27 08:49:10;;;;;;;3.22;0.80;;;;;;;13.80;40.53;101051.41;4985968;28;20033;-78
2021/04/27 08:51:37;;;;;;;0.70;0.70;;;;;;;14.10;39.88;101052.19;5021798;28;20026;-78
2021/04/27 08:54:04;;;;;;;3.75;0.80;;;;;;;14.40;40.29;101044.84;5012553;28;20045;-80
2021/04/27 08:56:29;;;;;;;1.40;0.82;;;;;;;14.96;40.59;101041.13;5027793;28;20074;-78
2021/04/27 08:58:55;;;;;;;2.58;0.75;;;;;;;15.14;40.04;101042.84;5022021;28;20033;-78
2021/04/27 09:01:23;;;;;;;3.65;0.75;;;;;;;15.88;38.52;101045.28;5008096;28;20054;-79
2021/04/27 09:03:51;;;;;;;2.63;0.80;;;;;;;16.35;36.79;101047.81;5011347;28;20041;-79
2021/04/27 09:06:21;;;;;;;1.98;0.75;;;;;;;15.63;37.54;101039.72;5000783;28;20058;-79
2021/04/27 09:08:48;;;;;;;4.45;1.10;;;;;;;15.74;38.04;101053.34;5005771;28;20033;-76
2021/04/27 09:11:35;;;;;;;1.83;0.95;;;;;;;15.81;36.36;101037.09;5004692;28;20033;-79
2021/04/27 09:14:21;;;;;;;2.83;0.80;;;;;;;15.16;37.67;101037.81;5024055;28;20576;-77
2021/04/27 09:16:55;;;;;;;1.27;0.77;;;;;;;13.73;38.32;101035.06;5005462;28;20022;-77
2021/04/27 09:19:32;;;;;;;1.33;0.93;;;;;;;14.44;38.52;101039.44;5023695;28;20040;-78
2021/04/27 09:22:18;;;;;;;2.15;0.70;;;;;;;14.73;37.64;101025.03;5021017;28;20128;-76
2021/04/27 09:25:02;;;;;;;3.35;0.80;;;;;;;15.95;37.13;101029.78;5019316;28;20034;-79
2021/04/27 09:27:40;;;;;;;1.40;0.80;;;;;;;15.90;35.37;101019.31;5020351;28;20045;-78
2021/04/27 09:30:27;;;;;;;1.48;0.70;;;;;;;16.07;34.96;101020.53;5022515;28;20117;-78
2021/04/27 09:32:58;;;;;;;0.73;0.70;;;;;;;15.48;35.15;101013.66;5019328;28;21171;-78
2021/04/27 09:35:26;;;;;;;1.40;0.70;;;;;;;15.54;34.66;101017.56;5019458;28;20037;-78
2021/04/27 09:38:12;;;;;;;3.08;0.70;;;;;;;14.44;34.62;101012.34;5028267;28;20033;-78
2021/04/27 09:40:59;;;;;;;1.63;0.80;;;;;;;13.82;35.90;101005.78;5007460;28;20037;-77
2021/04/27 09:43:37;;;;;;;0.80;0.60;;;;;;;13.89;35.82;101008.59;5024324;28;20029;-76
2021/04/27 09:46:14;;;;;;;1.30;0.90;;;;;;;14.58;34.16;101000.88;4999614;28;20033;-76
2021/04/27 09:48:48;;;;;;;1.10;0.60;;;;;;;14.76;33.60;101001.81;5018936;28;20052;-79
2021/04/27 09:51:14;;;;;;;2.58;0.70;;;;;;;14.24;34.80;101003.63;5010700;28;20052;-79
2021/04/27 09:53:40;;;;;;;1.95;0.85;;;;;;;15.44;35.74;100982.19;4990565;28;20026;-78
2021/04/27 09:56:07;;;;;;;0.60;0.45;;;;;;;15.35;32.78;100986.00;5006617;28;20045;-78
2021/04/27 09:58:34;;;;;;;2.70;0.50;;;;;;;14.95;34.45;100985.31;5011739;28;20053;-77
2021/04/27 10:00:59;;;;;;;0.90;0.73;;;;;;;16.10;34.31;100985.22;4990158;28;20707;-76
2021/04/27 10:03:25;;;;;;;0.98;0.50;;;;;;;16.50;34.22;100972.53;4991725;28;20033;-77
2021/04/27 10:05:53;;;;;;;3.95;0.70;;;;;;;16.38;34.09;100984.50;4993248;28;20040;-76
2021/04/27 10:08:19;;;;;;;1.65;0.60;;;;;;;15.94;32.53;100979.34;4994197;28;20343;-77
2021/04/27 10:10:45;;;;;;;0.70;0.50;;;;;;;16.46;33.56;100972.50;5008297;28;20147;-78
2021/04/27 10:13:10;;;;;;;2.85;0.98;;;;;;;16.41;33.00;100975.59;4989855;28;20036;-75
2021/04/27 10:15:37;;;;;;;1.08;0.50;;;;;;;16.96;34.28;100971.38;5014232;28;20038;-76
2021/04/27 10:18:07;;;;;;;1.30;0.77;;;;;;;17.43;33.00;100955.75;5010451;28;20120;-78
2021/04/27 10:20:33;;;;;;;1.30;0.90;;;;;;;17.67;31.27;100968.53;4999202;28;20128;-78
2021/04/27 10:23:00;;;;;;;0.93;0.82;;;;;;;17.14;31.08;100965.91;5002144;28;20021;-77
2021/04/27 10:25:30;;;;;;;2.45;0.70;;;;;;;17.42;31.71;100960.41;5017002;28;20120;-79
2021/04/27 10:28:01;;;;;;;0.77;0.50;;;;;;;17.91;30.96;100952.09;5017960;28;20030;-79
2021/04/27 10:30:27;;;;;;;;;;;;;;;16.20;32.11;100960.00;4989361;28;20557;-77
2021/04/27 10:33:02;;;;;;;2.97;0.80;;;;;;;16.19;33.23;100963.91;5020740;28;19957;-77
2021/04/27 10:36:01;;;;;;;1.52;0.60;;;;;;;15.38;32.92;100949.97;5004231;28;20073;-79
2021/04/27 10:38:41;;;;;;;1.52;0.73;;;;;;;15.83;33.55;100934.28;5011664;28;20097;-79
2021/04/27 10:41:11;;;;;;;1.67;0.70;;;;;;;16.11;33.60;100947.94;5021188;28;20037;-77
2021/04/27 10:43:39;;;;;;;2.17;0.70;;;;;;;14.92;34.03;100926.41;5014788;28;20116;-77
2021/04/27 10:46:36;;;;;;;1.95;0.70;;;;;;;16.30;34.04;100923.13;5020507;28;20033;-78
2021/04/27 10:49:10;;;;;;;0.90;0.82;;;;;;;17.15;32.14;100921.97;5020433;28;20042;-77
2021/04/27 10:51:40;;;;;;;3.08;0.68;;;;;;;17.85;31.81;100912.00;5015131;28;20037;-78
2021/04/27 10:54:09;;;;;;;1.55;0.77;;;;;;;16.32;32.09;100917.34;5015981;28;20274;-77
2021/04/27 10:56:39;;;;;;;1.98;0.80;;;;;;;16.79;32.29;100903.38;5017227;28;20107;-77
2021/04/27 10:59:08;;;;;;;1.00;0.80;;;;;;;16.69;32.20;100912.31;5013074;28;20563;-78
2021/04/27 11:01:34;;;;;;;2.70;0.47;;;;;;;16.54;31.36;100905.31;5014393;28;20133;-77
2021/04/27 11:04:02;;;;;;;0.68;0.60;;;;;;;16.70;33.16;100898.34;5016221;28;20107;-78
2021/04/27 11:06:27;;;;;;;0.55;0.55;;;;;;;17.44;33.05;100889.97;5016010;28;20041;-78
2021/04/27 11:08:57;;;;;;;3.30;0.57;;;;;;;17.82;32.37;100886.34;5015948;28;20037;-79
2021/04/27 11:11:31;;;;;;;3.83;1.10;;;;;;;18.17;30.40;100887.28;5017848;28;20429;-78
2021/04/27 11:14:12;;;;;;;2.33;0.55;;;;;;;18.46;29.34;100894.13;5015049;28;20513;-78
2021/04/27 11:16:43;;;;;;;1.10;0.60;;;;;;;18.70;30.47;100888.44;5013070;28;20478;-78
2021/04/27 11:19:10;;;;;;;2.47;0.70;;;;;;;19.00;30.47;100879.59;5016650;28;20060;-77
2021/04/27 11:21:36;;;;;;;0.80;0.80;;;;;;;18.93;29.11;100871.44;5018192;28;20028;-77
2021/04/27 11:24:07;;;;;;;1.60;0.60;;;;;;;19.03;29.63;100878.00;5016366;28;20025;-77
2021/04/27 11:26:33;;;;;;;0.88;0.47;;;;;;;18.97;28.42;100869.47;5016338;28;20022;-77
2021/04/27 11:29:06;;;;;;;0.95;0.75;;;;;;;18.19;28.52;100871.31;4985395;28;20139;-77
2021/04/27 11:31:51;;;;;;;0.93;0.70;;;;;;;18.08;28.59;100868.66;5023028;28;20037;-77
2021/04/27 11:34:16;;;;;;;0.85;0.50;;;;;;;17.81;29.52;100865.72;5015990;28;20048;-78
2021/04/27 11:36:42;;;;;;;1.83;0.70;;;;;;;17.83;29.45;100863.38;5016944;28;20101;-77
2021/04/27 11:39:22;;;;;;;1.67;0.50;;;;;;;17.48;29.68;100862.75;5019328;28;20040;-77
2021/04/27 11:41:49;;;;;;;2.83;0.90;;;;;;;16.83;29.84;100863.34;5018038;28;20087;-77
2021/04/27 11:44:16;;;;;;;1.73;0.80;;;;;;;17.32;29.50;100849.59;5017284;28;20033;-78